Station: Ceduna

  Atmospheric Gas Attenuation - ITU Rec 676-11   --------------- db/100km ---------------
Date Time Temp RH % AH g/m3 Dew Point Wind Direction Speed kph Gust kph Barometer mB Rainfall Since 9am 24GHz 47GHz 76GHz 122GHz 134GHz 241GHz
03 08:50 16.5 56 7.86 7.7 15 17 1023.5 0 17.9 24.4 36.1 94.4 86.5 297.1
03 08:40 16.1 60 8.22 8.3 17 20 1022.6 0 18.7 25.0 37.6 98.5 91.4 314.3
03 08:30 15.6 60 7.98 7.9 20 28 1021.8 0 18.2 24.7 36.9 96.5 88.9 305.3
03 08:20 15.6 61 8.11 8.1 24 28 1021 0 18.5 24.9 37.3 97.8 90.5 310.9
03 08:10 15.8 60 8.08 8.1 28 30 1020.8 0 18.4 24.8 37.1 97.2 89.9 308.7
03 08:00 15.9 61 8.26 8.4 26 35 1020.6 0 18.8 25.0 37.8 98.9 92.0 316.3
03 07:50 15.8 62 8.35 8.5 19 20 1021.5 0 19.0 25.2 38.2 100.1 93.3 321.0
03 07:40 15.4 62 8.15 8.2 19 22 1021.5 0 18.5 25.0 37.6 98.5 91.3 313.6
03 07:30 14.9 62 7.9 7.7 19 28 1021.7 0 18.0 24.8 36.9 96.5 88.7 304.4
03 07:20 14.7 63 7.93 7.7 22 28 1020 0 18.1 24.8 37.0 96.9 89.1 306.1
03 07:10 14.5 63 7.84 7.5 20 26 1020 0 17.9 24.7 36.8 96.2 88.2 302.8
03 07:00 14.4 63 7.79 7.5 20 26 1019.4 0 17.8 24.7 36.6 95.8 87.6 300.8
03 06:50 14.4 63 7.79 7.5 20 24 1020 0 17.8 24.7 36.6 95.8 87.7 301.0
03 06:40 14.2 63 7.69 7.3 19 24 1019.7 0 17.6 24.6 36.3 95.0 86.6 297.2
03 06:30 14.1 63 7.65 7.2 20 26 1019.6 0 17.5 24.5 36.2 94.7 86.2 295.8
03 06:20 14.1 62 7.52 6.9 22 26 1018.6 0 17.3 24.3 35.6 93.3 84.5 289.7
03 06:10 14.3 62 7.62 7.1 30 33 1018.6 0 17.5 24.4 35.9 94.1 85.5 293.4
03 06:00 14.3 61 7.49 6.9 20 28 1019.2 0 17.2 24.2 35.5 92.8 83.9 287.8
03 05:50 14.5 60 7.46 6.8 24 30 1018.8 0 17.1 24.1 35.2 92.2 83.3 285.7
03 05:40 14.6 59 7.38 6.7 26 33 1018.6 0 17.0 23.9 34.9 91.3 82.2 281.7
03 05:30 14.7 59 7.43 6.8 28 37 1018.4 0 17.1 24.0 35.0 91.6 82.7 283.5
03 05:20 14.8 58 7.35 6.6 28 32 1018.7 0 16.9 23.9 34.7 90.7 81.6 279.7
03 05:00 14.8 58 7.35 6.6 17 24 1019.5 0 16.9 23.9 34.7 90.8 81.7 279.9
03 04:50 14.8 57 7.22 6.4 20 24 1018.8 0 16.6 23.7 34.2 89.4 80.0 274.1
03 04:40 14.8 57 7.22 6.4 24 26 1019 0 16.6 23.7 34.2 89.5 80.0 274.1
03 04:30 14.9 56 7.14 6.2 19 26 1018.5 0 16.4 23.5 33.8 88.5 78.9 270.2
03 04:20 15.1 55 7.1 6.1 22 26 1018.3 0 16.3 23.4 33.6 87.9 78.2 267.8
03 04:10 15.2 55 7.14 6.2 28 32 1016.8 0 16.4 23.4 33.7 88.0 78.5 268.8
03 04:00 15.3 54 7.05 6.1 26 33 1018.2 0 16.2 23.2 33.3 87.1 77.4 264.9
03 03:50 15.5 53 7.01 6 28 32 1018 0 16.1 23.1 33.1 86.5 76.7 262.5
03 03:40 15.5 55 7.27 6.5 24 28 1018.2 0 16.7 23.5 34.1 89.1 79.9 273.7
03 03:30 15.4 57 7.49 6.9 13 19 1018.8 0 17.1 23.9 35.0 91.5 82.7 283.8
03 03:20 15.5 56 7.4 6.8 13 15 1018.9 0 17.0 23.8 34.6 90.5 81.5 279.5
03 03:10 15.6 56 7.45 6.9 20 22 1018.4 0 17.1 23.8 34.7 90.8 82.0 281.2
03 03:00 15.5 58 7.67 7.3 20 26 1017.8 0 17.5 24.1 35.6 93.1 84.8 291.0
03 02:50 15.5 59 7.8 7.5 20 24 1018.3 0 17.8 24.3 36.1 94.5 86.5 296.9
03 02:40 15.5 59 7.8 7.5 20 24 1017.9 0 17.8 24.3 36.1 94.4 86.4 296.8
03 02:30 15.5 59 7.8 7.5 22 30 1018 0 17.8 24.3 36.1 94.4 86.4 296.8
03 02:20 15.6 59 7.85 7.6 20 24 1018.5 0 17.9 24.4 36.2 94.9 87.0 298.8
03 02:10 15.7 59 7.89 7.7 17 20 1018.7 0 18.0 24.4 36.3 95.2 87.4 300.2
03 02:00 15.7 59 7.89 7.7 24 35 1017.6 0 18.0 24.4 36.3 95.1 87.3 299.9
03 01:50 15.8 60 8.08 8.1 20 24 1019.2 0 18.4 24.7 37.1 97.1 89.7 308.3
03 01:40 15.7 60 8.03 8 28 32 1018.3 0 18.3 24.6 36.9 96.6 89.1 306.3
03 01:30 15.6 62 8.25 8.4 20 30 1018.5 0 18.8 25.0 37.8 99.0 92.1 316.5
03 01:20 15.6 62 8.25 8.4 24 30 1018.7 0 18.8 25.0 37.8 99.0 92.1 316.6
03 01:10 15.7 62 8.3 8.4 26 28 1019.2 0 18.9 25.1 37.9 99.5 92.6 318.5
03 01:00 15.8 62 8.35 8.5 24 33 1019.3 0 19.0 25.2 38.1 99.9 93.2 320.4
03 00:50 15.6 62 8.25 8.4 30 33 1018.7 0 18.8 25.0 37.8 99.0 92.1 316.6
03 00:40 15.6 62 8.25 8.4 17 20 1019.7 0 18.8 25.1 37.8 99.1 92.2 316.8
03 00:30 15.8 61 8.21 8.3 24 32 1019.7 0 18.7 24.9 37.6 98.4 91.4 314.3
03 00:20 15.7 60 8.03 8 24 28 1019.7 0 18.3 24.7 36.9 96.7 89.3 306.6
03 00:10 15.8 59 7.94 7.8 22 30 1020.1 0 18.1 24.5 36.6 95.7 88.0 302.4
03 00:00 15.8 59 7.94 7.8 17 24 1020.5 0 18.1 24.6 36.6 95.8 88.1 302.5
02 23:50 16 60 8.17 8.2 17 20 1020.3 0 18.6 24.9 37.4 97.8 90.7 311.8
02 23:40 16 59 8.04 8 22 28 1020 0 18.3 24.6 36.8 96.5 89.1 306.0
02 23:30 16.1 58 7.95 7.8 26 39 1018.8 0 18.1 24.4 36.4 95.3 87.7 301.4
02 23:20 16.1 59 8.09 8.1 22 28 1020.7 0 18.4 24.7 37.0 96.9 89.6 308.0
02 23:10 16.2 59 8.14 8.2 30 37 1020.4 0 18.5 24.8 37.1 97.3 90.1 309.8
02 23:00 16.1 59 8.09 8.1 20 30 1020.8 0 18.4 24.7 37.0 97.0 89.6 308.0
02 22:50 16.1 59 8.09 8.1 24 28 1020.9 0 18.4 24.7 37.0 97.0 89.6 308.1
02 22:40 16.1 59 8.09 8.1 20 24 1021.2 0 18.4 24.7 37.0 97.0 89.7 308.1
02 22:30 16.1 59 8.09 8.1 19 28 1021 0 18.4 24.7 37.0 97.0 89.7 308.1
02 22:20 16.1 59 8.09 8.1 22 24 1020.3 0 18.4 24.7 37.0 96.9 89.6 307.9
02 22:10 16.1 58 7.95 7.8 20 26 1020.5 0 18.1 24.5 36.5 95.5 87.9 301.8
02 22:00 16.1 59 8.09 8.1 24 32 1020.2 0 18.4 24.7 37.0 96.9 89.6 307.9
02 21:50 16.2 58 8 7.9 24 28 1020.5 0 18.2 24.5 36.6 95.9 88.4 303.6
02 21:40 16.2 59 8.14 8.2 28 30 1020.7 0 18.5 24.8 37.2 97.3 90.1 309.8
02 21:30 16.2 59 8.14 8.2 24 33 1020.6 0 18.5 24.8 37.2 97.3 90.1 309.8
02 21:20 16.1 59 8.09 8.1 20 22 1020.4 0 18.4 24.7 37.0 96.9 89.6 307.9
02 21:10 16.1 58 7.95 7.8 22 28 1020.7 0 18.1 24.5 36.5 95.5 87.9 301.8
02 21:00 16.1 58 7.95 7.8 30 41 1019.9 0 18.1 24.5 36.4 95.4 87.8 301.6
02 20:50 16.1 58 7.95 7.8 28 32 1019.8 0 18.1 24.5 36.4 95.4 87.8 301.6
02 20:40 16.2 58 8 7.9 26 32 1020 0 18.2 24.5 36.6 95.8 88.3 303.5
02 20:30 16.1 57 7.81 7.6 28 39 1019.2 0 17.8 24.2 35.9 93.9 86.0 295.3
02 20:20 16.1 58 7.95 7.8 28 32 1019.9 0 18.1 24.5 36.4 95.4 87.8 301.6
02 20:10 16.1 58 7.95 7.8 26 32 1019.7 0 18.1 24.5 36.4 95.4 87.8 301.6
02 20:00 16.2 58 8 7.9 26 35 1020 0 18.2 24.5 36.6 95.8 88.3 303.5
02 19:50 16.3 58 8.05 8 30 35 1020.4 0 18.3 24.6 36.8 96.3 88.9 305.4
02 19:40 16.2 57 7.86 7.7 32 37 1020.2 0 17.9 24.3 36.1 94.4 86.6 297.4
02 19:30 16.4 57 7.96 7.9 28 37 1019.5 0 18.1 24.4 36.3 95.1 87.6 300.8
02 19:20 16.4 57 7.96 7.9 30 33 1019.4 0 18.1 24.4 36.3 95.1 87.6 300.8
02 19:10 16.5 57 8 8 26 32 1020 0 18.2 24.4 36.5 95.5 88.0 302.3
02 19:00 16.5 57 8 8 26 33 1019.7 0 18.2 24.4 36.4 95.4 88.0 302.3
02 18:50 16.6 58 8.19 8.3 28 33 1019.8 0 18.6 24.7 37.1 97.3 90.3 310.3
02 18:40 16.7 58 8.24 8.4 24 28 1019.4 0 18.7 24.7 37.3 97.6 90.7 312.0
02 18:30 16.7 57 8.1 8.1 28 39 1019.2 0 18.4 24.5 36.7 96.2 89.0 305.8
02 18:20 16.8 56 8.01 8 30 33 1019.1 0 18.2 24.3 36.3 95.1 87.7 301.4
02 18:10 17.2 55 8.05 8.1 30 39 1019.6 0 18.3 24.3 36.3 95.1 87.8 301.8
02 18:00 17.4 55 8.15 8.3 26 37 1019.5 0 18.5 24.4 36.6 95.9 88.8 305.3
02 17:50 17.3 56 8.25 8.4 24 28 1019.3 0 18.7 24.6 37.0 97.0 90.2 310.0
02 17:40 17 56 8.1 8.2 28 33 1019.4 0 18.4 24.4 36.6 95.8 88.6 304.7
02 17:30 17.1 57 8.3 8.5 32 43 1018.9 0 18.8 24.7 37.3 97.7 91.0 312.9
02 17:20 17.4 56 8.3 8.5 32 37 1019.1 0 18.8 24.6 37.2 97.3 90.7 311.8
02 17:10 17.2 56 8.2 8.4 30 33 1019.1 0 18.6 24.5 36.9 96.6 89.6 308.2
02 17:00 17.3 56 8.25 8.4 33 43 1019.1 0 18.7 24.6 37.0 97.0 90.2 310.0
02 16:50 17.9 53 8.09 8.2 37 43 1018.5 0 18.3 24.1 36.1 94.6 87.4 300.6
02 16:40 18.3 53 8.29 8.6 32 37 1018.2 0 18.7 24.3 36.7 96.1 89.4 307.6
02 16:30 18.8 53 8.53 9 35 46 1018.6 0 19.2 24.6 37.4 97.9 91.9 316.2
02 16:20 18 54 8.29 8.6 32 41 1018.5 0 18.7 24.4 36.8 96.5 89.8 308.9
02 16:10 17.6 56 8.4 8.7 35 41 1018.3 0 19.0 24.7 37.4 98.0 91.6 315.2

Last Refresh: 03-Dec-2021 09:04:29

Bureau of Meteorology